createdAt,value
2018-07-16T00:02:20.436Z,43.50
2018-07-16T00:04:48.268Z,43.60
2018-07-16T00:07:15.860Z,43.70
2018-07-16T00:09:43.953Z,43.90
2018-07-16T00:15:58.733Z,44.10
2018-07-16T00:18:34.015Z,43.90
2018-07-16T00:21:25.658Z,44.00
2018-07-16T00:23:53.430Z,44.30
2018-07-16T00:26:21.076Z,44.40
2018-07-16T00:28:48.822Z,44.60
2018-07-16T00:31:16.510Z,44.80
2018-07-16T00:33:44.047Z,44.90
2018-07-16T00:36:12.967Z,45.00
2018-07-16T00:38:40.589Z,45.20
2018-07-16T00:41:08.183Z,45.40
2018-07-16T00:43:36.064Z,45.40
2018-07-16T00:46:03.720Z,45.40
2018-07-16T00:48:31.319Z,45.40
2018-07-16T00:51:02.656Z,45.60
2018-07-16T00:53:30.265Z,45.70
2018-07-16T00:55:57.882Z,45.90
2018-07-16T00:58:25.624Z,45.90
2018-07-16T01:00:53.179Z,45.90
2018-07-16T01:03:20.736Z,46.20
2018-07-16T01:05:48.464Z,46.40
2018-07-16T01:08:16.048Z,46.50
2018-07-16T01:13:11.927Z,46.80
2018-07-16T01:15:39.524Z,46.90
2018-07-16T01:18:07.144Z,47.10
2018-07-16T01:20:34.792Z,47.20
2018-07-16T01:23:02.404Z,47.20
2018-07-16T01:25:30.418Z,47.40
2018-07-16T01:27:58.015Z,47.40
2018-07-16T01:32:47.598Z,47.60
2018-07-16T01:35:15.285Z,47.70
2018-07-16T01:37:42.852Z,47.70
2018-07-16T01:40:10.911Z,47.80
2018-07-16T01:42:38.575Z,47.90
2018-07-16T01:45:06.291Z,47.90
2018-07-16T01:47:34.038Z,48.00
2018-07-16T01:50:01.687Z,48.10
2018-07-16T01:54:56.923Z,48.10
2018-07-16T01:59:52.229Z,48.50
2018-07-16T02:02:20.005Z,48.70
2018-07-16T02:04:47.581Z,48.90
2018-07-16T02:07:15.133Z,49.00
2018-07-16T02:09:42.945Z,49.10
2018-07-16T02:12:10.676Z,49.20
2018-07-16T02:14:38.276Z,49.40
2018-07-16T02:17:06.132Z,49.40
2018-07-16T02:19:33.735Z,49.40
2018-07-16T02:22:01.448Z,49.50
2018-07-16T02:24:29.098Z,49.60
2018-07-16T02:26:56.893Z,49.80
2018-07-16T02:29:24.488Z,49.90
2018-07-16T02:31:52.230Z,50.50
2018-07-16T02:34:19.801Z,50.10
2018-07-16T02:36:47.709Z,50.20
2018-07-16T02:39:15.288Z,50.40
2018-07-16T02:41:43.217Z,50.60
2018-07-16T02:44:11.079Z,50.70
2018-07-16T02:46:38.723Z,50.70
2018-07-16T02:49:06.296Z,50.80
2018-07-16T02:51:34.165Z,50.90
2018-07-16T02:54:01.745Z,50.90
2018-07-16T02:56:29.399Z,51.00
2018-07-16T02:58:57.182Z,51.00
2018-07-16T03:01:24.781Z,51.00
2018-07-16T03:03:52.362Z,51.10
2018-07-16T03:06:20.436Z,51.10
2018-07-16T03:08:48.086Z,51.20
2018-07-16T03:11:15.928Z,51.20
2018-07-16T03:13:43.605Z,51.20
2018-07-16T03:16:11.192Z,51.40
2018-07-16T03:18:38.949Z,51.40
2018-07-16T03:21:07.405Z,51.50
2018-07-16T03:23:35.021Z,51.50
2018-07-16T03:26:02.638Z,51.70
2018-07-16T03:28:30.338Z,51.70
2018-07-16T03:30:57.973Z,51.60
2018-07-16T03:33:25.421Z,51.80
2018-07-16T03:35:53.328Z,51.90
2018-07-16T03:40:48.584Z,52.00
2018-07-16T03:43:16.352Z,52.10
2018-07-16T03:45:43.932Z,52.20
2018-07-16T03:48:11.613Z,52.20
2018-07-16T03:50:39.538Z,52.20
2018-07-16T03:55:34.869Z,52.40
2018-07-16T04:00:30.460Z,52.40
2018-07-16T04:02:58.042Z,52.40
2018-07-16T04:05:25.700Z,52.40
2018-07-16T04:07:53.295Z,52.30
2018-07-16T04:10:20.968Z,52.40
2018-07-16T04:12:48.632Z,52.50
2018-07-16T04:15:16.196Z,52.40
2018-07-16T04:17:43.867Z,52.20
2018-07-16T04:20:11.739Z,52.30
2018-07-16T04:22:39.332Z,52.80
2018-07-16T04:25:06.963Z,52.20
2018-07-16T04:27:34.713Z,52.10
2018-07-16T04:30:02.475Z,52.10
2018-07-16T04:32:30.117Z,52.10
2018-07-16T04:34:58.436Z,52.00
2018-07-16T04:37:26.237Z,52.00
2018-07-16T04:39:54.581Z,52.00
2018-07-16T04:42:22.177Z,52.70
2018-07-16T04:44:49.784Z,52.00
2018-07-16T04:47:17.473Z,52.10
2018-07-16T04:52:13.417Z,52.20
2018-07-16T04:54:41.138Z,52.10
2018-07-16T04:57:09.213Z,52.10
2018-07-16T04:59:36.786Z,52.10
2018-07-16T05:02:04.394Z,52.10
2018-07-16T05:04:34.373Z,52.10
2018-07-16T05:07:02.065Z,52.10
2018-07-16T05:09:29.628Z,52.10
2018-07-16T05:11:57.461Z,52.20
2018-07-16T05:14:25.080Z,52.20
2018-07-16T05:16:52.652Z,52.20
2018-07-16T05:19:20.477Z,52.20
2018-07-16T05:21:48.068Z,52.20
2018-07-16T05:24:15.689Z,52.20
2018-07-16T05:29:11.173Z,52.30
2018-07-16T05:31:39.034Z,52.30
2018-07-16T05:34:06.631Z,52.30
2018-07-16T05:36:34.093Z,52.30
2018-07-16T05:39:01.905Z,52.30
2018-07-16T05:41:29.546Z,52.40
2018-07-16T05:43:57.076Z,52.40
2018-07-16T05:46:24.992Z,52.30
2018-07-16T05:48:52.561Z,52.40
2018-07-16T05:51:20.146Z,52.30
2018-07-16T05:56:34.989Z,52.40
2018-07-16T05:59:30.405Z,52.40
2018-07-16T06:02:14.213Z,52.30
2018-07-16T06:04:42.018Z,52.20
2018-07-16T06:07:33.520Z,52.00
2018-07-16T06:10:03.271Z,51.90
2018-07-16T06:12:30.813Z,51.70
2018-07-16T06:17:26.725Z,51.00
2018-07-16T06:19:54.297Z,50.60
2018-07-16T06:22:21.980Z,50.10
2018-07-16T06:24:49.773Z,49.60
2018-07-16T06:29:45.574Z,48.70
2018-07-16T06:32:13.316Z,48.10
2018-07-16T06:34:41.074Z,47.40
2018-07-16T06:37:08.928Z,46.90
2018-07-16T06:44:35.144Z,45.30
2018-07-16T06:47:03.068Z,44.80
2018-07-16T06:49:30.645Z,44.20
2018-07-16T06:51:58.247Z,43.60
2018-07-16T06:54:26.084Z,42.90
2018-07-16T06:56:53.641Z,42.30
2018-07-16T07:01:49.298Z,41.10
2018-07-16T07:04:16.920Z,40.50
2018-07-16T07:06:44.816Z,39.90
2018-07-16T07:09:12.486Z,39.30
2018-07-16T07:14:08.044Z,38.10
2018-07-16T07:16:35.699Z,37.40
2018-07-16T07:19:03.568Z,36.90
2018-07-16T07:21:31.177Z,36.40
2018-07-16T07:23:58.744Z,35.80
2018-07-16T07:26:26.448Z,35.40
2018-07-16T07:28:54.037Z,34.90
2018-07-16T07:31:21.618Z,34.40
2018-07-16T07:33:49.480Z,34.00
2018-07-16T07:38:44.761Z,32.70
2018-07-16T07:41:12.776Z,32.20
2018-07-16T07:43:40.372Z,31.60
2018-07-16T07:46:07.941Z,31.00
2018-07-16T07:48:35.622Z,30.40
2018-07-16T07:51:03.269Z,29.90
2018-07-16T07:53:30.969Z,29.60
2018-07-16T07:55:58.577Z,29.30
2018-07-16T08:00:54.324Z,28.70
2018-07-16T08:03:21.898Z,28.30
2018-07-16T08:08:29.624Z,27.60
2018-07-16T08:10:57.236Z,27.40
2018-07-16T08:13:24.816Z,27.30
2018-07-16T08:15:52.850Z,27.10
2018-07-16T08:18:24.277Z,26.90
2018-07-16T08:20:51.895Z,26.60
2018-07-16T08:23:19.892Z,26.40
2018-07-16T08:28:15.247Z,25.80
2018-07-16T08:30:43.093Z,25.60
2018-07-16T08:40:33.856Z,24.80
2018-07-16T08:43:01.408Z,24.60
2018-07-16T08:45:29.256Z,24.50
2018-07-16T08:50:24.504Z,24.00
2018-07-16T08:52:52.428Z,23.80
2018-07-16T08:55:19.959Z,23.30
2018-07-16T08:57:47.526Z,22.60
2018-07-16T09:00:15.242Z,22.30
2018-07-16T09:02:42.808Z,21.90
2018-07-16T09:05:10.374Z,21.80
2018-07-16T09:07:38.240Z,22.30
2018-07-16T09:10:05.797Z,21.90
2018-07-16T09:12:33.365Z,22.00
2018-07-16T09:19:56.540Z,22.60
2018-07-16T09:22:24.360Z,22.70
2018-07-16T09:24:51.943Z,22.60
2018-07-16T09:27:30.001Z,22.30
2018-07-16T09:29:57.621Z,22.20
2018-07-16T09:32:26.135Z,22.00
2018-07-16T09:37:26.477Z,21.50
2018-07-16T09:40:28.772Z,21.30
2018-07-16T09:42:56.290Z,21.10
2018-07-16T09:45:24.136Z,20.90
2018-07-16T09:47:51.750Z,20.70
2018-07-16T09:50:19.565Z,20.70
2018-07-16T09:52:47.156Z,20.80
2018-07-16T09:55:14.989Z,20.90
2018-07-16T09:57:42.524Z,20.80
2018-07-16T10:00:10.109Z,20.70
2018-07-16T10:07:33.317Z,20.50
2018-07-16T10:10:01.173Z,20.90
2018-07-16T10:12:28.712Z,20.80
2018-07-16T10:14:56.272Z,20.80
2018-07-16T10:17:24.028Z,20.70
2018-07-16T10:19:51.580Z,20.50
2018-07-16T10:22:19.256Z,20.60
2018-07-16T10:24:47.064Z,20.50
2018-07-16T10:27:14.653Z,20.50
2018-07-16T10:32:10.778Z,20.30
2018-07-16T10:34:38.335Z,20.20
2018-07-16T10:37:06.241Z,20.10
2018-07-16T10:42:04.353Z,19.90
2018-07-16T10:44:32.144Z,19.80
2018-07-16T10:46:59.700Z,19.70
2018-07-16T10:49:27.273Z,19.60
2018-07-16T10:51:55.308Z,19.40
2018-07-16T10:59:18.509Z,19.20
2018-07-16T11:04:13.690Z,18.90
2018-07-16T11:06:41.281Z,18.80
2018-07-16T11:09:08.841Z,18.70
2018-07-16T11:11:36.448Z,18.60
2018-07-16T11:16:38.869Z,18.60
2018-07-16T11:19:06.478Z,18.50
2018-07-16T11:21:34.022Z,18.50
2018-07-16T11:24:01.835Z,18.30
2018-07-16T11:28:56.990Z,18.20
2018-07-16T11:31:24.764Z,18.20
2018-07-16T11:33:52.340Z,18.00
2018-07-16T11:36:19.950Z,17.90
2018-07-16T11:38:47.516Z,17.80
2018-07-16T11:43:43.070Z,17.90
2018-07-16T11:46:10.663Z,17.90
2018-07-16T11:48:38.184Z,18.00
2018-07-16T11:51:06.073Z,18.10
2018-07-16T11:53:33.597Z,18.20
2018-07-16T11:56:01.112Z,18.20
2018-07-16T12:00:56.427Z,18.40
2018-07-16T12:05:51.888Z,18.20
2018-07-16T12:08:19.472Z,18.60
2018-07-16T12:10:47.317Z,18.50
2018-07-16T12:15:42.596Z,18.10
2018-07-16T12:18:10.417Z,18.00
2018-07-16T12:23:05.615Z,18.20
2018-07-16T12:25:33.397Z,18.20
2018-07-16T12:28:01.002Z,18.30
2018-07-16T12:30:28.797Z,18.40
2018-07-16T12:32:56.399Z,18.40
2018-07-16T12:35:23.897Z,18.60
2018-07-16T12:42:48.008Z,18.40
2018-07-16T12:50:11.108Z,18.30
2018-07-16T12:52:38.800Z,18.40
2018-07-16T12:55:06.422Z,18.40
2018-07-16T12:57:34.119Z,18.50
2018-07-16T13:00:32.260Z,18.40
2018-07-16T13:03:38.020Z,18.40
2018-07-16T13:09:35.613Z,18.60
2018-07-16T13:12:08.141Z,18.60
2018-07-16T13:17:03.353Z,19.00
2018-07-16T13:19:31.458Z,18.80
2018-07-16T13:24:26.701Z,18.90
2018-07-16T13:31:50.030Z,19.00
2018-07-16T13:34:17.833Z,19.10
2018-07-16T13:36:45.440Z,19.00
2018-07-16T13:39:13.017Z,18.90
2018-07-16T13:41:40.745Z,19.00
2018-07-16T13:44:08.947Z,19.10
2018-07-16T13:46:36.828Z,19.20
2018-07-16T13:49:04.411Z,19.10
2018-07-16T13:51:32.460Z,19.20
2018-07-16T13:56:28.212Z,19.40
2018-07-16T13:58:56.385Z,19.40
2018-07-16T14:06:19.495Z,19.60
2018-07-16T14:13:42.617Z,19.80
2018-07-16T14:16:10.606Z,19.80
2018-07-16T14:18:38.453Z,19.80
2018-07-16T14:21:06.074Z,19.90
2018-07-16T14:23:33.930Z,20.00
2018-07-16T14:26:01.477Z,20.20
2018-07-16T14:28:29.080Z,20.10
2018-07-16T14:30:56.872Z,20.10
2018-07-16T14:35:52.092Z,20.10
2018-07-16T14:38:19.873Z,20.60
2018-07-16T14:40:47.472Z,20.10
2018-07-16T14:43:15.049Z,20.10
2018-07-16T14:45:42.909Z,20.10
2018-07-16T14:48:10.461Z,20.20
2018-07-16T14:53:05.758Z,20.50
2018-07-16T14:55:33.327Z,20.70
2018-07-16T14:58:00.935Z,20.80
2018-07-16T15:00:28.821Z,20.80
2018-07-16T15:02:56.528Z,20.80
2018-07-16T15:05:24.141Z,20.80
2018-07-16T15:07:52.005Z,20.70
2018-07-16T15:10:19.573Z,20.80
2018-07-16T15:12:47.136Z,20.90
2018-07-16T15:20:10.113Z,21.10
2018-07-16T15:22:37.857Z,21.20
2018-07-16T15:25:05.853Z,21.20
2018-07-16T15:27:33.693Z,21.30
2018-07-16T15:30:01.316Z,21.80
2018-07-16T15:34:56.750Z,21.20
2018-07-16T15:37:24.309Z,21.30
2018-07-16T15:42:19.798Z,21.60
2018-07-16T15:44:47.393Z,21.60
2018-07-16T15:47:15.249Z,21.70
2018-07-16T15:49:43.361Z,21.70
2018-07-16T15:52:10.965Z,21.80
2018-07-16T15:54:38.630Z,21.80
2018-07-16T15:57:05.780Z,22.00
2018-07-16T15:59:33.372Z,22.00
2018-07-16T16:02:01.493Z,22.00
2018-07-16T16:04:29.068Z,22.00
2018-07-16T16:06:56.620Z,22.00
2018-07-16T16:09:24.225Z,22.10
2018-07-16T16:11:51.823Z,22.10
2018-07-16T16:14:19.708Z,22.10
2018-07-16T16:16:47.260Z,22.10
2018-07-16T16:19:14.883Z,22.10
2018-07-16T16:21:42.905Z,22.60
2018-07-16T16:24:10.599Z,22.00
2018-07-16T16:29:12.682Z,22.60
2018-07-16T16:31:40.305Z,22.10
2018-07-16T16:34:07.904Z,22.10
2018-07-16T16:36:35.516Z,22.10
2018-07-16T16:39:06.136Z,22.20
2018-07-16T16:41:34.044Z,22.20
2018-07-16T16:44:01.934Z,22.20
2018-07-16T16:46:29.160Z,22.20
2018-07-16T16:48:56.782Z,22.20
2018-07-16T16:51:24.393Z,22.20
2018-07-16T16:53:52.052Z,22.30
2018-07-16T16:56:20.054Z,22.40
2018-07-16T16:58:47.718Z,22.50
2018-07-16T17:01:15.429Z,22.60
2018-07-16T17:03:43.121Z,22.70
2018-07-16T17:06:10.741Z,23.10
2018-07-16T17:08:38.673Z,23.00
2018-07-16T17:11:06.236Z,23.00
2018-07-16T17:13:33.874Z,23.00
2018-07-16T17:16:01.802Z,23.00
2018-07-16T17:18:29.448Z,23.00
2018-07-16T17:20:57.130Z,23.00
2018-07-16T17:25:52.639Z,22.90
2018-07-16T17:28:20.205Z,23.00
2018-07-16T17:30:48.096Z,22.90
2018-07-16T17:33:15.723Z,22.90
2018-07-16T17:35:43.304Z,23.00
2018-07-16T17:38:11.125Z,23.00
2018-07-16T17:40:38.825Z,23.00
2018-07-16T17:48:01.726Z,23.00
2018-07-16T17:52:56.986Z,23.00
2018-07-16T17:55:24.545Z,23.00
2018-07-16T17:57:52.425Z,23.60
2018-07-16T18:00:20.192Z,23.10
2018-07-16T18:02:47.793Z,23.10
2018-07-16T18:05:15.408Z,23.10
2018-07-16T18:10:12.136Z,23.10
2018-07-16T18:12:39.776Z,23.10
2018-07-16T18:15:07.392Z,23.20
2018-07-16T18:20:02.727Z,23.90
2018-07-16T18:22:30.309Z,23.60
2018-07-16T18:24:57.857Z,23.70
2018-07-16T18:27:25.610Z,23.70
2018-07-16T18:29:53.208Z,23.80
2018-07-16T18:32:20.820Z,23.90
2018-07-16T18:34:48.538Z,24.00
2018-07-16T18:37:16.144Z,24.00
2018-07-16T18:39:43.785Z,24.10
2018-07-16T18:42:11.673Z,24.20
2018-07-16T18:44:39.252Z,24.20
2018-07-16T18:47:06.834Z,24.40
2018-07-16T18:49:34.461Z,24.50
2018-07-16T18:52:02.059Z,24.60
2018-07-16T18:54:29.617Z,24.70
2018-07-16T18:56:57.436Z,24.80
2018-07-16T18:59:25.731Z,24.90
2018-07-16T19:01:53.357Z,25.00
2018-07-16T19:06:49.641Z,25.70
2018-07-16T19:11:45.223Z,25.40
2018-07-16T19:14:13.356Z,25.40
2018-07-16T19:16:40.925Z,25.50
2018-07-16T19:21:41.112Z,25.70
2018-07-16T19:24:09.290Z,25.80
2018-07-16T19:26:36.979Z,25.90
2018-07-16T19:29:04.576Z,26.00
2018-07-16T19:31:32.485Z,26.20
2018-07-16T19:34:00.093Z,25.90
2018-07-16T19:36:27.740Z,26.50
2018-07-16T19:38:55.343Z,26.60
2018-07-16T19:43:50.896Z,27.40
2018-07-16T19:48:46.328Z,27.20
2018-07-16T19:51:13.825Z,27.40
2018-07-16T19:53:43.772Z,27.50
2018-07-16T19:56:11.678Z,27.60
2018-07-16T20:01:06.978Z,27.80
2018-07-16T20:03:34.840Z,28.00
2018-07-16T20:06:02.442Z,28.10
2018-07-16T20:08:30.024Z,28.30
2018-07-16T20:13:25.459Z,28.50
2018-07-16T20:15:53.015Z,28.70
2018-07-16T20:18:20.899Z,28.80
2018-07-16T20:23:19.103Z,29.60
2018-07-16T20:25:47.018Z,29.20
2018-07-16T20:28:14.930Z,29.30
2018-07-16T20:30:42.730Z,29.40
2018-07-16T20:33:10.533Z,29.60
2018-07-16T20:35:38.270Z,29.80
2018-07-16T20:38:13.585Z,29.90
2018-07-16T20:40:44.085Z,30.00
2018-07-16T20:43:12.732Z,30.10
2018-07-16T20:45:57.484Z,30.30
2018-07-16T20:48:32.439Z,31.00
2018-07-16T20:51:09.071Z,30.40
2018-07-16T20:53:50.353Z,30.50
2018-07-16T20:56:18.220Z,30.70
2018-07-16T21:01:13.761Z,31.00
2018-07-16T21:13:33.350Z,31.40
2018-07-16T21:16:07.877Z,31.50
2018-07-16T21:18:35.500Z,31.50
2018-07-16T21:21:03.116Z,31.60
2018-07-16T21:23:30.702Z,31.80
2018-07-16T21:25:58.346Z,31.90
2018-07-16T21:28:25.945Z,32.10
2018-07-16T21:30:53.607Z,32.30
2018-07-16T21:33:21.381Z,32.40
2018-07-16T21:35:48.961Z,32.50
2018-07-16T21:38:16.545Z,32.50
2018-07-16T21:40:44.569Z,32.70
2018-07-16T21:43:12.047Z,32.80
2018-07-16T21:45:39.607Z,32.90
2018-07-16T21:48:07.522Z,33.10
2018-07-16T21:50:35.130Z,33.20
2018-07-16T21:53:03.067Z,33.40
2018-07-16T21:57:58.860Z,33.70
2018-07-16T22:00:28.460Z,33.80
2018-07-16T22:02:57.936Z,34.00
2018-07-16T22:07:54.792Z,34.20
2018-07-16T22:10:22.984Z,34.20
2018-07-16T22:12:50.580Z,34.40
2018-07-16T22:15:22.857Z,34.50
2018-07-16T22:17:53.304Z,34.70
2018-07-16T22:20:21.801Z,34.80
2018-07-16T22:22:49.749Z,35.00
2018-07-16T22:25:17.620Z,35.10
2018-07-16T22:27:45.864Z,35.20
2018-07-16T22:30:13.448Z,35.20
2018-07-16T22:32:41.285Z,35.40
2018-07-16T22:35:08.978Z,35.50
2018-07-16T22:37:36.580Z,35.50
2018-07-16T22:40:04.924Z,35.60
2018-07-16T22:42:32.885Z,35.70
2018-07-16T22:45:00.500Z,35.70
2018-07-16T22:47:28.221Z,35.90
2018-07-16T22:52:23.539Z,36.10
2018-07-16T22:54:51.456Z,36.20
2018-07-16T22:57:19.052Z,36.40
2018-07-16T22:59:46.633Z,36.60
2018-07-16T23:02:14.280Z,36.60
2018-07-16T23:04:41.836Z,36.70
2018-07-16T23:07:09.505Z,36.90
2018-07-16T23:09:37.134Z,37.00
2018-07-16T23:12:05.319Z,37.10
2018-07-16T23:14:32.909Z,37.20
2018-07-16T23:17:01.249Z,37.40
2018-07-16T23:24:24.474Z,37.60
2018-07-16T23:26:52.680Z,37.80
2018-07-16T23:29:20.248Z,37.80
2018-07-16T23:31:48.197Z,37.90
2018-07-16T23:34:15.781Z,37.90
2018-07-16T23:36:43.729Z,38.10
2018-07-16T23:39:12.713Z,38.10
2018-07-16T23:41:41.001Z,38.20
2018-07-16T23:44:08.928Z,38.30
2018-07-16T23:46:36.609Z,38.40
2018-07-16T23:49:04.204Z,38.50
2018-07-16T23:53:59.841Z,38.60
2018-07-16T23:56:27.517Z,38.60
